»·PEaware :: N700EN KSNA-KLAS

N700EN :: KSNA-KLAS

FLIGHT INFORMATION

Flight Status: Arrived
Operator: Privately registered:
United States
More flights under this callsign
Pilot: James L. (28459)
Aircraft: SOCATA TBM-900
(TBM9)
More flights by this aircraft type
Origin: KSNA John Wayne-Orange Co
United States
Destination: KLAS McCarran Intl
United States
More flights between these airports :: More routes between these airports
Route: +MUSEL8 DAG CRESO4
File this flight plan on PilotEdge
Remarks:
Altitude:
(Current/Filed)
27,000ft
Speed:
(Current/Filed)
300kts
Departed: 21-Mar-20 09:10 AM
Arrived: 21-Mar-20 10:11 AM
Distance/Time
Traveled:
197nm/1:01
Distance/Time
To Go:
Arrived

Flight Plot

Page will automatically refresh every two minutes.

Flight plan parsing failed; only flown route is shown


Map Options




Map Legend


Flown Route
Filed Route
Departure Airport
Arrival Airport
Navaid (VOR, NDB)
Fix

Horizontal Profiles

Position Reports

Time Latitude Longitude Heading Altitude Ground
Speed
21-Mar-20 08:45 33.670508 -117.874654 27 59ft 0kts
21-Mar-20 08:46 33.670508 -117.874654 27 59ft 0kts
21-Mar-20 08:47 33.670508 -117.874654 27 59ft 0kts
21-Mar-20 08:48 33.670508 -117.874654 27 59ft 0kts
21-Mar-20 08:49 33.670508 -117.874654 27 59ft 0kts
21-Mar-20 08:50 33.670508 -117.874654 27 59ft 0kts
21-Mar-20 08:51 33.670508 -117.874654 27 59ft 0kts
21-Mar-20 08:52 33.670508 -117.874654 27 59ft 0kts
21-Mar-20 08:53 33.670508 -117.874654 27 59ft 0kts
21-Mar-20 08:54 33.670508 -117.874654 27 59ft 0kts
21-Mar-20 08:55 33.670508 -117.874654 27 59ft 0kts
21-Mar-20 08:56 33.670508 -117.874654 27 59ft 0kts
21-Mar-20 08:57 33.670508 -117.874654 27 59ft 0kts
21-Mar-20 08:58 33.670508 -117.874654 27 59ft 0kts
21-Mar-20 08:59 33.670508 -117.874654 27 59ft 0kts
21-Mar-20 09:00 33.670508 -117.874654 27 59ft 0kts
21-Mar-20 09:01 33.670508 -117.874654 27 59ft 0kts
21-Mar-20 09:02 33.670508 -117.874654 27 59ft 0kts
21-Mar-20 09:03 33.670508 -117.874654 27 59ft 0kts
21-Mar-20 09:04 33.670508 -117.874654 27 59ft 0kts
21-Mar-20 09:05 33.671283 -117.873114 28 59ft 17kts
21-Mar-20 09:06 33.676853 -117.869590 27 59ft 24kts
21-Mar-20 09:07 33.681240 -117.866839 69 59ft 12kts
21-Mar-20 09:08 33.681227 -117.866506 110 59ft 0kts
21-Mar-20 09:09 33.673160 -117.870444 209 184ft 115kts
21-Mar-20 09:10 33.637127 -117.887373 188 2288ft 148kts
21-Mar-20 09:11 33.597715 -117.894563 189 4661ft 152kts
21-Mar-20 09:12 33.593235 -117.931635 326 5019ft 217kts
21-Mar-20 09:13 33.613978 -117.981732 230 4995ft 244kts
21-Mar-20 09:14 33.554210 -117.975724 188 4997ft 249kts
21-Mar-20 09:15 33.530256 -118.030879 261 7045ft 186kts
21-Mar-20 09:16 33.522301 -118.094115 267 8008ft 226kts
21-Mar-20 09:17 33.564366 -118.113231 7 9924ft 183kts
21-Mar-20 09:18 33.608215 -118.102870 10 12326ft 172kts
21-Mar-20 09:19 33.654925 -118.090224 9 14013ft 198kts
21-Mar-20 09:20 33.715841 -118.073469 10 14004ft 258kts
21-Mar-20 09:21 33.785095 -118.052900 26 13967ft 275kts
21-Mar-20 09:22 33.845192 -117.998847 35 13993ft 279kts
21-Mar-20 09:23 33.906580 -117.943219 35 13993ft 285kts
21-Mar-20 09:24 33.969653 -117.885989 35 13994ft 286kts
21-Mar-20 09:25 34.033775 -117.827690 35 14162ft 279kts
21-Mar-20 09:26 34.085511 -117.777385 44 17427ft 204kts
21-Mar-20 09:27 34.125177 -117.724064 43 19687ft 216kts
21-Mar-20 09:28 34.167890 -117.666512 42 21739ft 228kts
21-Mar-20 09:29 34.213335 -117.605285 42 23239ft 270kts
21-Mar-20 09:30 34.270158 -117.528433 43 23218ft 323kts
21-Mar-20 09:31 34.332122 -117.444403 43 23215ft 335kts
21-Mar-20 09:32 34.388669 -117.367347 40 25994ft 273kts
21-Mar-20 09:33 34.441429 -117.295808 41 27231ft 310kts
21-Mar-20 09:34 34.504759 -117.209327 42 27209ft 348kts
21-Mar-20 09:35 34.571622 -117.117817 42 27201ft 358kts
21-Mar-20 09:36 34.640200 -117.023761 43 27201ft 361kts
21-Mar-20 09:37 34.708181 -116.930243 44 27202ft 363kts
21-Mar-20 09:38 34.776838 -116.835511 44 27203ft 363kts
21-Mar-20 09:39 34.845639 -116.740344 44 27206ft 363kts
21-Mar-20 09:40 34.915679 -116.643343 46 25009ft 374kts
21-Mar-20 09:41 34.975644 -116.548940 61 24195ft 311kts
21-Mar-20 09:42 35.014845 -116.460404 61 24194ft 271kts
21-Mar-20 09:43 35.052981 -116.374373 61 24228ft 303kts
21-Mar-20 09:45 35.096500 -116.276010 62 24206ft 327kts
21-Mar-20 09:46 35.141400 -116.174230 62 23559ft 339kts
21-Mar-20 09:47 35.187276 -116.069915 62 21717ft 337kts
21-Mar-20 09:48 35.232333 -115.967114 62 19931ft 332kts
21-Mar-20 09:49 35.276626 -115.865749 62 18139ft 327kts
21-Mar-20 09:50 35.324049 -115.768649 47 16115ft 312kts
21-Mar-20 09:51 35.380378 -115.694210 47 14229ft 271kts
21-Mar-20 09:52 35.433548 -115.623215 47 12560ft 280kts
21-Mar-20 09:53 35.487665 -115.550805 47 10715ft 281kts
21-Mar-20 09:54 35.541068 -115.479197 47 10018ft 269kts
21-Mar-20 09:55 35.593106 -115.409317 47 10018ft 269kts
21-Mar-20 09:56 35.644739 -115.339839 48 10018ft 269kts
21-Mar-20 09:57 35.697087 -115.269248 48 9029ft 261kts
21-Mar-20 09:58 35.744582 -115.205075 48 7150ft 236kts
21-Mar-20 09:59 35.790178 -115.156591 11 7020ft 209kts
21-Mar-20 10:00 35.844787 -115.140254 16 7009ft 191kts
21-Mar-20 10:01 35.895796 -115.120726 16 7011ft 186kts
21-Mar-20 10:02 35.946155 -115.101079 16 7012ft 186kts
21-Mar-20 10:03 35.996136 -115.081202 16 7010ft 187kts
21-Mar-20 10:03 36.039858 -115.063546 16 5864ft 206kts
21-Mar-20 10:05 36.093797 -115.041203 16 5481ft 143kts
21-Mar-20 10:06 36.130119 -115.031590 325 5482ft 128kts
21-Mar-20 10:06 36.141471 -115.066055 287 4845ft 134kts
21-Mar-20 10:07 36.152490 -115.110996 283 3743ft 135kts
21-Mar-20 10:09 36.123239 -115.141123 212 2832ft 111kts
21-Mar-20 10:09 36.102631 -115.154617 209 2237ft 95kts
21-Mar-20 10:10 36.089056 -115.162548 209 2126ft 19kts

Navigation Log

Ident Type
Flight plan parsing failed, navigation log unavailable